Time;durP1;ratioP1;P1;durP2;ratioP2;P2;SDS_P1;SDS_P2;PMS_P1;PMS_P2;Temp;Humidity;BMP_temperature;BMP_pressure;BME280_temperature;BME280_humidity;BME280_pressure;Samples;Min_cycle;Max_cycle;Signal;HPM_P1;HPM_P2
2021/03/02 00:02:24;;;;;;;8.30;2.40;;;;;;;29.87;30.11;99627.28;5031544;28;20273;-60
2021/03/02 00:04:51;;;;;;;5.40;2.28;;;;;;;28.94;31.37;99626.19;5031693;28;20224;-62
2021/03/02 00:07:18;;;;;;;7.93;2.60;;;;;;;28.46;31.84;99623.44;5031464;28;20216;-62
2021/03/02 00:09:45;;;;;;;6.75;2.33;;;;;;;30.27;29.76;99633.34;5031771;28;20210;-61
2021/03/02 00:12:11;;;;;;;3.83;2.25;;;;;;;29.45;30.45;99632.06;5031986;28;20508;-61
2021/03/02 00:14:38;;;;;;;6.25;2.30;;;;;;;28.77;31.51;99626.25;5031764;28;20204;-61
2021/03/02 00:17:14;;;;;;;5.15;2.20;;;;;;;29.75;30.23;99632.22;5031429;28;20214;-62
2021/03/02 00:19:47;;;;;;;5.72;2.08;;;;;;;29.40;30.54;99636.31;5031852;28;20552;-62
2021/03/02 00:22:20;;;;;;;6.20;2.15;;;;;;;28.93;31.38;99630.75;5031208;28;20694;-61
2021/03/02 00:24:51;;;;;;;5.82;2.30;;;;;;;28.96;31.61;99634.94;5031614;28;20218;-62
2021/03/02 00:27:17;;;;;;;4.43;2.00;;;;;;;29.56;30.25;99635.34;5031757;28;20224;-62
2021/03/02 00:29:45;;;;;;;5.72;2.05;;;;;;;28.95;31.17;99631.41;5031338;28;20203;-61
2021/03/02 00:32:12;;;;;;;4.40;2.08;;;;;;;28.59;31.73;99628.31;5030932;28;20242;-62
2021/03/02 00:34:38;;;;;;;6.03;2.00;;;;;;;29.88;29.96;99637.03;5031738;28;20207;-62
2021/03/02 00:37:05;;;;;;;6.38;1.98;;;;;;;29.20;31.13;99631.34;5031325;28;20204;-62
2021/03/02 00:39:31;;;;;;;5.70;2.17;;;;;;;28.66;31.81;99634.72;5031353;28;20206;-62
2021/03/02 00:41:57;;;;;;;6.30;2.10;;;;;;;30.34;29.61;99638.84;5030965;28;20253;-62
2021/03/02 00:44:23;;;;;;;4.80;2.05;;;;;;;29.15;30.89;99633.69;5031164;28;20225;-62
2021/03/02 00:46:49;;;;;;;6.63;2.25;;;;;;;28.69;31.61;99639.72;5030985;28;20200;-62
2021/03/02 00:49:16;;;;;;;4.15;1.90;;;;;;;29.44;31.05;99627.66;5031254;28;20223;-61
2021/03/02 00:51:42;;;;;;;5.57;2.00;;;;;;;29.67;30.23;99634.97;5030951;28;20624;-60
2021/03/02 00:54:08;;;;;;;4.07;2.33;;;;;;;28.82;31.57;99636.50;5030844;28;20437;-62
2021/03/02 00:56:35;;;;;;;2.42;1.70;;;;;;;28.46;32.39;99638.75;5030869;28;20694;-62
2021/03/02 00:59:01;;;;;;;7.10;1.98;;;;;;;29.94;29.80;99640.88;5030800;28;20659;-62
2021/03/02 01:01:27;;;;;;;4.68;1.95;;;;;;;28.99;31.41;99637.28;5031170;28;20540;-62
2021/03/02 01:03:53;;;;;;;4.43;2.15;;;;;;;28.48;31.92;99636.72;5030926;28;20232;-62
2021/03/02 01:06:19;;;;;;;3.95;2.10;;;;;;;30.22;29.51;99635.75;5031113;28;20214;-62
2021/03/02 01:08:45;;;;;;;4.30;2.00;;;;;;;29.19;30.88;99634.22;5030885;28;20234;-62
2021/03/02 01:11:12;;;;;;;3.00;1.65;;;;;;;28.76;31.38;99640.75;5031207;28;20204;-62
2021/03/02 01:13:38;;;;;;;2.80;1.60;;;;;;;29.67;30.51;99632.25;5031050;28;20248;-62
2021/03/02 01:16:05;;;;;;;6.18;2.30;;;;;;;29.33;30.70;99630.78;5030922;28;20208;-62
2021/03/02 01:18:31;;;;;;;4.35;1.92;;;;;;;28.87;31.40;99627.91;5031376;28;20706;-62
2021/03/02 01:20:57;;;;;;;3.65;1.83;;;;;;;28.46;32.19;99631.50;5034546;28;20605;-71
2021/03/02 01:23:23;;;;;;;3.90;2.10;;;;;;;29.71;30.12;99628.19;5035110;28;20247;-61
2021/03/02 01:25:49;;;;;;;5.45;1.98;;;;;;;28.84;31.58;99631.78;5034937;28;20279;-61
2021/03/02 01:28:16;;;;;;;4.95;1.80;;;;;;;28.56;31.86;99631.34;5034992;28;20195;-60
2021/03/02 01:30:42;;;;;;;4.72;2.08;;;;;;;30.20;29.60;99630.53;5034579;28;20693;-61
2021/03/02 01:33:08;;;;;;;4.45;2.20;;;;;;;29.07;31.07;99629.19;5034867;28;20230;-62
2021/03/02 01:35:34;;;;;;;4.97;2.30;;;;;;;28.63;31.64;99626.13;5034424;28;20689;-62
2021/03/02 01:38:00;;;;;;;5.28;1.90;;;;;;;29.96;30.25;99628.03;5034757;28;20278;-62
2021/03/02 01:40:27;;;;;;;4.75;1.88;;;;;;;29.30;30.85;99625.75;5034665;28;20258;-61
2021/03/02 01:42:53;;;;;;;5.88;2.10;;;;;;;28.63;31.67;99629.66;5034476;28;20223;-62
2021/03/02 01:45:20;;;;;;;4.57;2.10;;;;;;;28.65;31.84;99624.94;5034950;28;20200;-61
2021/03/02 01:47:49;;;;;;;5.38;2.00;;;;;;;29.40;30.80;99620.97;5034379;28;20200;-62
2021/03/02 01:50:15;;;;;;;6.13;2.40;;;;;;;28.98;31.18;99627.56;5034407;28;20204;-62
2021/03/02 01:52:41;;;;;;;10.40;2.33;;;;;;;28.31;32.86;99625.13;5034363;28;20228;-61
2021/03/02 01:55:08;;;;;;;5.13;2.00;;;;;;;30.02;30.05;99632.72;5034504;28;20261;-61
2021/03/02 01:57:35;;;;;;;8.13;2.00;;;;;;;29.02;31.30;99630.72;5034013;28;20659;-60
2021/03/02 02:00:04;;;;;;;7.28;2.35;;;;;;;28.55;31.81;99626.97;5034076;28;20642;-61
2021/03/02 02:02:37;;;;;;;4.95;2.00;;;;;;;29.76;30.35;99633.03;5034048;28;20226;-61
2021/03/02 02:05:06;;;;;;;4.47;2.17;;;;;;;28.96;31.18;99629.56;5034771;28;20189;-61
2021/03/02 02:07:38;;;;;;;4.38;2.00;;;;;;;28.63;31.70;99632.38;5034097;28;20245;-62
2021/03/02 02:10:12;;;;;;;7.20;1.92;;;;;;;29.69;30.60;99630.22;5034304;28;20204;-62
2021/03/02 02:12:42;;;;;;;6.60;2.30;;;;;;;29.33;30.62;99626.22;5034188;28;20604;-61
2021/03/02 02:15:11;;;;;;;5.22;1.95;;;;;;;28.78;31.96;99622.56;5033969;28;20225;-62
2021/03/02 02:17:42;;;;;;;11.40;2.53;;;;;;;28.87;31.84;99627.91;5033882;28;20238;-61
2021/03/02 02:20:10;;;;;;;7.82;2.30;;;;;;;29.41;30.61;99619.97;5033851;28;20191;-58
2021/03/02 02:23:00;;;;;;;5.45;1.90;;;;;;;28.58;31.75;99626.66;5034055;28;20232;-60
2021/03/02 02:25:37;;;;;;;8.27;2.50;;;;;;;28.54;32.04;99625.28;5033999;28;20270;-61
2021/03/02 02:28:07;;;;;;;5.32;2.13;;;;;;;29.53;30.09;99620.41;5033973;28;20192;-61
2021/03/02 02:30:33;;;;;;;5.57;2.42;;;;;;;28.15;32.33;99624.16;5033751;28;20215;-61
2021/03/02 02:33:02;;;;;;;8.68;2.10;;;;;;;27.72;33.31;99625.28;5034008;28;20281;-62
2021/03/02 02:35:29;;;;;;;9.75;2.30;;;;;;;30.48;29.31;99627.28;5033599;28;20211;-62
2021/03/02 02:37:56;;;;;;;6.10;2.20;;;;;;;29.26;30.92;99622.56;5033600;28;20264;-62
2021/03/02 02:40:24;;;;;;;4.22;1.75;;;;;;;28.72;31.55;99623.25;5033375;28;20207;-62
2021/03/02 02:42:52;;;;;;;6.80;1.98;;;;;;;28.66;31.79;99621.25;5033414;28;20228;-58
2021/03/02 02:45:21;;;;;;;6.40;1.90;;;;;;;29.69;30.40;99619.44;5033391;28;20557;-61
2021/03/02 02:47:49;;;;;;;4.28;2.20;;;;;;;28.58;31.85;99627.50;5033578;28;20212;-61
2021/03/02 02:50:16;;;;;;;6.53;1.85;;;;;;;28.38;32.30;99624.31;5033179;28;20207;-62
2021/03/02 02:52:43;;;;;;;5.25;2.10;;;;;;;29.63;30.34;99625.56;5033453;28;20228;-61
2021/03/02 02:55:10;;;;;;;5.90;2.17;;;;;;;28.66;31.64;99629.34;5033433;28;20243;-62
2021/03/02 02:57:41;;;;;;;5.57;2.28;;;;;;;28.45;32.07;99626.31;5033162;28;20227;-62
2021/03/02 03:00:09;;;;;;;6.10;2.25;;;;;;;30.21;29.78;99629.53;5033058;28;20556;-61
2021/03/02 03:02:41;;;;;;;5.38;2.17;;;;;;;29.23;30.99;99624.75;5032765;28;20701;-61
2021/03/02 03:05:11;;;;;;;3.80;1.90;;;;;;;28.47;31.83;99625.13;5033183;28;20192;-62
2021/03/02 03:07:40;;;;;;;6.78;2.22;;;;;;;29.68;30.37;99624.00;5032927;28;20267;-62
2021/03/02 03:10:09;;;;;;;4.82;1.90;;;;;;;29.15;30.99;99618.38;5033307;28;20204;-61
2021/03/02 03:12:39;;;;;;;3.53;1.90;;;;;;;28.85;31.50;99616.50;5032655;28;20224;-61
2021/03/02 03:15:09;;;;;;;6.43;1.70;;;;;;;28.66;31.46;99620.41;5032946;28;20199;-59
2021/03/02 03:17:39;;;;;;;3.72;1.77;;;;;;;29.54;30.49;99619.38;5032483;28;20694;-60
2021/03/02 03:20:07;;;;;;;3.72;1.70;;;;;;;28.76;31.45;99623.72;5032971;28;20238;-58
2021/03/02 03:22:35;;;;;;;4.47;1.80;;;;;;;28.21;32.50;99625.31;5032804;28;20234;-69
2021/03/02 03:25:03;;;;;;;3.95;1.77;;;;;;;29.67;30.21;99632.25;5032607;28;20200;-63
2021/03/02 03:27:31;;;;;;;4.50;1.63;;;;;;;28.82;31.45;99628.44;5033106;28;20204;-62
2021/03/02 03:29:57;;;;;;;2.95;1.80;;;;;;;28.39;31.94;99628.66;5032676;28;20651;-63
2021/03/02 03:32:24;;;;;;;9.43;2.00;;;;;;;30.02;29.72;99630.03;5032640;28;20208;-58
2021/03/02 03:34:53;;;;;;;4.70;1.92;;;;;;;29.22;30.83;99625.78;5033034;28;20265;-62
2021/03/02 03:37:19;;;;;;;4.20;1.92;;;;;;;28.65;31.65;99624.94;5032357;28;20211;-62
2021/03/02 03:39:45;;;;;;;5.30;2.20;;;;;;;29.45;30.81;99623.97;5032542;28;20204;-62
2021/03/02 03:42:12;;;;;;;4.10;1.80;;;;;;;29.20;30.88;99634.03;5031673;28;20249;-62
2021/03/02 03:44:38;;;;;;;4.72;1.80;;;;;;;28.58;31.73;99632.88;5032325;28;20647;-62
2021/03/02 03:47:05;;;;;;;4.47;2.10;;;;;;;28.36;32.51;99628.16;5032585;28;20564;-62
2021/03/02 03:49:31;;;;;;;4.47;1.73;;;;;;;29.43;30.94;99635.97;5032176;28;20204;-62
2021/03/02 03:52:00;;;;;;;8.85;2.00;;;;;;;28.67;31.59;99640.94;5032312;28;20204;-60
2021/03/02 03:54:28;;;;;;;6.28;2.00;;;;;;;28.31;32.47;99636.75;5032431;28;20219;-62
2021/03/02 03:56:54;;;;;;;4.25;1.83;;;;;;;30.38;29.59;99646.44;5032254;28;20200;-61
2021/03/02 03:59:22;;;;;;;4.75;2.03;;;;;;;29.96;29.88;99646.91;5032331;28;20246;-61
2021/03/02 04:01:49;;;;;;;4.15;2.13;;;;;;;29.38;30.45;99636.47;5031919;28;20216;-62
2021/03/02 04:04:16;;;;;;;4.75;1.77;;;;;;;28.63;31.42;99643.13;5031816;28;20570;-61
2021/03/02 04:06:43;;;;;;;6.07;1.90;;;;;;;28.23;32.16;99642.97;5032122;28;20219;-62
2021/03/02 04:09:11;;;;;;;5.80;1.75;;;;;;;27.99;32.33;99643.78;5032484;28;20230;-61
2021/03/02 04:11:37;;;;;;;4.32;2.15;;;;;;;27.47;32.94;99646.72;5031832;28;20204;-61
2021/03/02 04:14:03;;;;;;;4.53;1.73;;;;;;;30.28;29.75;99651.22;5031976;28;20220;-62
2021/03/02 04:16:30;;;;;;;3.35;1.80;;;;;;;29.60;30.66;99648.31;5032011;28;20204;-61
2021/03/02 04:18:57;;;;;;;3.75;1.85;;;;;;;29.05;31.15;99654.63;5031343;28;20755;-62
2021/03/02 04:21:23;;;;;;;4.13;1.80;;;;;;;30.24;29.84;99655.28;5031819;28;20207;-62
2021/03/02 04:23:49;;;;;;;6.10;1.73;;;;;;;29.33;30.65;99661.25;5031479;28;20227;-61
2021/03/02 04:26:16;;;;;;;4.22;1.65;;;;;;;28.98;30.98;99659.84;5031932;28;20261;-62
2021/03/02 04:28:42;;;;;;;4.43;1.80;;;;;;;29.01;31.39;99658.66;5031864;28;20222;-62
2021/03/02 04:31:08;;;;;;;3.55;1.58;;;;;;;29.57;30.34;99664.00;5031502;28;20243;-62
2021/03/02 04:33:34;;;;;;;4.70;1.63;;;;;;;28.07;32.33;99658.28;5031419;28;20224;-62
2021/03/02 04:36:01;;;;;;;3.95;1.90;;;;;;;27.81;32.43;99659.19;5032219;28;20359;-62
2021/03/02 04:38:27;;;;;;;2.88;1.58;;;;;;;27.97;32.97;99664.63;5031471;28;20286;-62
2021/03/02 04:40:53;;;;;;;4.10;1.58;;;;;;;28.67;32.29;99660.59;5031370;28;20701;-62
2021/03/02 04:43:20;;;;;;;3.33;1.60;;;;;;;30.60;29.26;99660.88;5031328;28;20273;-62
2021/03/02 04:45:46;;;;;;;3.70;1.80;;;;;;;31.22;28.87;99664.25;5031280;28;20210;-62
2021/03/02 04:48:12;;;;;;;3.55;1.73;;;;;;;30.25;29.83;99657.81;5031922;28;20196;-62
2021/03/02 04:50:38;;;;;;;5.03;1.58;;;;;;;29.91;30.23;99669.03;5031145;28;20646;-62
2021/03/02 04:53:04;;;;;;;2.78;1.85;;;;;;;30.46;29.37;99668.94;5030878;28;20281;-61
2021/03/02 04:55:31;;;;;;;3.70;1.70;;;;;;;31.32;28.34;99672.91;5031582;28;20342;-62
2021/03/02 04:57:57;;;;;;;3.55;1.70;;;;;;;30.33;29.68;99673.09;5031346;28;20224;-66
2021/03/02 05:00:24;;;;;;;6.90;1.70;;;;;;;29.63;30.46;99663.31;5031516;28;20716;-60
2021/03/02 05:02:51;;;;;;;3.55;1.33;;;;;;;30.36;29.43;99669.16;5031636;28;20257;-61
2021/03/02 05:05:17;;;;;;;5.03;1.50;;;;;;;31.63;27.88;99665.63;5032048;28;20203;-62
2021/03/02 05:07:43;;;;;;;3.47;1.85;;;;;;;30.29;29.82;99673.63;5031581;28;20737;-63
2021/03/02 05:10:10;;;;;;;8.15;1.75;;;;;;;29.70;30.63;99664.25;5031373;28;20208;-62
2021/03/02 05:12:36;;;;;;;4.25;1.50;;;;;;;30.18;29.98;99667.66;5031031;28;20710;-62
2021/03/02 05:15:02;;;;;;;4.78;1.67;;;;;;;31.64;27.68;99662.75;5031457;28;20299;-62
2021/03/02 05:17:29;;;;;;;3.63;1.50;;;;;;;30.26;29.63;99670.28;5031251;28;20299;-60
2021/03/02 05:19:55;;;;;;;2.90;1.65;;;;;;;29.81;30.21;99660.31;5031467;28;20200;-61
2021/03/02 05:22:21;;;;;;;8.95;1.95;;;;;;;30.91;29.13;99668.00;5031278;28;20188;-61
2021/03/02 05:24:48;;;;;;;5.63;2.03;;;;;;;31.30;28.54;99656.06;5031284;28;20292;-61
2021/03/02 05:27:14;;;;;;;5.65;1.60;;;;;;;30.20;29.88;99664.78;5031364;28;20277;-59
2021/03/02 05:29:40;;;;;;;3.92;1.67;;;;;;;29.91;30.31;99660.09;5031399;28;20200;-60
2021/03/02 05:32:06;;;;;;;3.67;1.60;;;;;;;30.75;29.22;99660.06;5031202;28;20200;-60
2021/03/02 05:34:33;;;;;;;4.25;1.75;;;;;;;31.51;27.70;99659.84;5030876;28;20552;-62
2021/03/02 05:36:59;;;;;;;3.60;1.70;;;;;;;30.52;29.54;99663.66;5031193;28;20210;-62
2021/03/02 05:39:26;;;;;;;5.38;1.70;;;;;;;29.90;30.38;99664.66;5030925;28;20234;-65
2021/03/02 05:41:53;;;;;;;2.90;1.50;;;;;;;30.19;29.98;99661.22;5030524;28;20562;-61
2021/03/02 05:44:19;;;;;;;4.28;1.73;;;;;;;31.79;28.09;99648.31;5030921;28;20315;-62
2021/03/02 05:46:46;;;;;;;7.43;1.80;;;;;;;30.95;28.78;99663.91;5030551;28;20214;-60
2021/03/02 05:49:13;;;;;;;2.30;1.33;;;;;;;30.10;29.98;99662.31;5030901;28;20196;-61
2021/03/02 05:51:42;;;;;;;4.40;1.83;;;;;;;30.50;29.80;99665.72;5030591;28;20607;-60
2021/03/02 05:54:09;;;;;;;5.85;1.40;;;;;;;31.83;28.13;99663.13;5030428;28;20220;-62
2021/03/02 05:56:37;;;;;;;3.33;1.75;;;;;;;30.60;29.78;99666.28;5030664;28;20196;-62
2021/03/02 05:59:04;;;;;;;3.33;1.55;;;;;;;30.04;30.08;99665.72;5030674;28;20234;-62
2021/03/02 06:01:30;;;;;;;3.95;1.73;;;;;;;30.93;28.94;99667.81;5030483;28;20295;-62
2021/03/02 06:03:56;;;;;;;2.97;1.50;;;;;;;31.24;27.98;99670.31;5030394;28;20268;-62
2021/03/02 06:06:22;;;;;;;4.53;1.73;;;;;;;30.37;29.45;99676.28;5033962;28;20700;-62
2021/03/02 06:08:49;;;;;;;3.92;1.52;;;;;;;30.25;30.22;99674.00;5034112;28;20200;-62
2021/03/02 06:11:23;;;;;;;5.65;1.40;;;;;;;31.62;28.27;99669.34;5033806;28;20357;-61
2021/03/02 06:13:50;;;;;;;4.57;1.85;;;;;;;30.96;28.86;99675.53;5034128;28;20227;-60
2021/03/02 06:16:16;;;;;;;2.97;1.40;;;;;;;30.42;29.15;99671.19;5033577;28;20211;-62
2021/03/02 06:18:47;;;;;;;2.78;1.65;;;;;;;30.39;29.21;99682.34;5033711;28;20703;-62
2021/03/02 06:21:14;;;;;;;2.47;1.40;;;;;;;31.60;28.39;99677.66;5034053;28;20197;-62
2021/03/02 06:23:46;;;;;;;9.98;2.50;;;;;;;30.55;29.61;99686.75;5033527;28;20315;-62
2021/03/02 06:26:27;;;;;;;11.13;2.28;;;;;;;30.29;30.21;99685.25;5033891;28;20188;-62
2021/03/02 06:28:55;;;;;;;45.72;6.05;;;;;;;31.30;28.87;99674.16;5033773;28;20188;-72
2021/03/02 06:31:33;;;;;;;41.10;7.00;;;;;;;31.26;28.70;99680.94;5033657;28;20736;-72
2021/03/02 06:34:10;;;;;;;36.78;6.43;;;;;;;30.47;30.37;99682.25;5033909;28;20413;-73
2021/03/02 06:36:37;;;;;;;24.83;6.13;;;;;;;30.08;31.26;99688.63;5033821;28;20188;-71
2021/03/02 06:39:30;;;;;;;29.80;5.47;;;;;;;32.25;28.57;99688.53;5034241;28;20231;-72
2021/03/02 06:42:15;;;;;;;35.17;5.60;;;;;;;31.01;30.09;99705.56;5033909;28;20193;-72
2021/03/02 06:44:43;;;;;;;33.58;4.93;;;;;;;30.38;30.47;99699.56;5032788;28;20204;-72
2021/03/02 06:47:09;;;;;;;23.92;4.50;;;;;;;30.32;30.16;99705.66;5033833;28;20231;-72
2021/03/02 06:49:40;;;;;;;28.80;5.53;;;;;;;32.50;27.34;99712.47;5033390;28;20255;-72
2021/03/02 06:52:17;;;;;;;25.95;4.90;;;;;;;31.06;28.53;99713.09;5033178;28;20538;-71
2021/03/02 06:54:44;;;;;;;18.80;4.05;;;;;;;30.38;30.32;99718.44;5034053;28;20192;-71
2021/03/02 06:57:10;;;;;;;24.02;3.88;;;;;;;29.79;31.24;99711.72;5033444;28;20206;-69
2021/03/02 06:59:37;;;;;;;24.60;4.78;;;;;;;29.43;31.41;99716.78;5033427;28;20250;-71
2021/03/02 07:02:04;;;;;;;16.02;4.07;;;;;;;29.20;31.71;99716.72;5033151;28;20223;-72
2021/03/02 07:04:31;;;;;;;21.40;4.45;;;;;;;30.03;30.57;99716.13;5033324;28;20224;-73
2021/03/02 07:06:58;;;;;;;24.52;4.85;;;;;;;31.58;27.88;99712.16;5033567;28;20231;-72
2021/03/02 07:09:25;;;;;;;17.60;4.10;;;;;;;31.68;28.05;99714.56;5033111;28;20244;-71
2021/03/02 07:11:54;;;;;;;25.23;4.13;;;;;;;30.89;29.49;99721.31;5033596;28;20258;-70
2021/03/02 07:14:22;;;;;;;22.10;3.83;;;;;;;30.23;30.30;99719.19;5033775;28;20231;-71
2021/03/02 07:16:50;;;;;;;15.30;3.60;;;;;;;32.55;27.61;99718.16;5033830;28;20252;-69
2021/03/02 07:19:17;;;;;;;19.80;4.05;;;;;;;31.53;28.53;99722.69;5033708;28;20286;-71
2021/03/02 07:21:44;;;;;;;15.65;3.80;;;;;;;31.01;29.45;99729.00;5034201;28;20206;-75
2021/03/02 07:24:13;;;;;;;21.73;4.47;;;;;;;31.14;29.46;99727.38;5039893;28;20224;-75
2021/03/02 07:26:43;;;;;;;21.15;3.80;;;;;;;32.72;27.87;99733.09;5041990;28;20212;-76
2021/03/02 07:29:10;;;;;;;14.65;4.18;;;;;;;31.57;29.16;99733.97;5041977;28;20292;-76
2021/03/02 07:31:38;;;;;;;17.42;4.05;;;;;;;31.09;29.15;99742.44;5042529;28;20291;-75
2021/03/02 07:34:07;;;;;;;16.30;3.60;;;;;;;30.52;29.31;99743.78;5039666;28;20306;-75
2021/03/02 07:36:36;;;;;;;18.58;3.90;;;;;;;30.32;29.66;99738.03;5035071;28;20192;-75
2021/03/02 07:39:14;;;;;;;16.70;3.65;;;;;;;31.67;27.75;99740.75;5033446;28;20239;-75
2021/03/02 07:41:40;;;;;;;16.00;3.95;;;;;;;32.52;26.87;99746.44;5034095;28;20209;-75
2021/03/02 07:44:07;;;;;;;15.55;3.47;;;;;;;33.47;25.46;99749.63;5034236;28;20270;-74
2021/03/02 07:46:46;;;;;;;12.43;3.42;;;;;;;32.43;25.98;99747.63;5033677;28;20527;-75
2021/03/02 07:49:38;;;;;;;10.75;3.00;;;;;;;31.64;27.10;99751.97;5033645;28;20628;-75
2021/03/02 07:52:20;;;;;;;12.90;3.85;;;;;;;32.15;26.83;99744.84;5034394;28;20227;-75
2021/03/02 07:54:48;;;;;;;16.40;3.78;;;;;;;33.41;25.61;99745.03;5035291;28;20188;-75
2021/03/02 07:57:24;;;;;;;13.55;4.32;;;;;;;32.27;26.45;99740.59;5035510;28;20188;-76
2021/03/02 08:00:23;;;;;;;11.18;3.70;;;;;;;31.32;27.65;99745.88;5041057;28;20687;-68
2021/03/02 08:03:17;;;;;;;11.50;3.40;;;;;;;30.96;28.81;99741.22;5035501;28;20243;-69
2021/03/02 08:05:44;;;;;;;13.32;3.50;;;;;;;30.49;29.74;99744.97;5035986;28;20208;-69
2021/03/02 08:08:36;;;;;;;13.73;4.15;;;;;;;31.14;28.94;99748.97;5037007;28;20212;-68
2021/03/02 08:11:31;;;;;;;20.30;3.97;;;;;;;31.36;28.36;99752.59;5036247;28;20617;-68
2021/03/02 08:13:58;;;;;;;9.63;3.22;;;;;;;32.05;27.30;99743.25;5033327;28;20310;-68
2021/03/02 08:16:58;;;;;;;32.90;3.47;;;;;;;32.93;27.40;99750.34;5034152;28;20232;-68
2021/03/02 08:19:32;;;;;;;11.10;3.10;;;;;;;33.09;26.10;99751.91;4971981;28;20613;-67
2021/03/02 08:22:00;;;;;;;12.98;3.30;;;;;;;32.77;26.16;99748.75;4971868;28;20296;-66
2021/03/02 08:24:50;;;;;;;9.85;2.65;;;;;;;31.53;28.67;99749.72;5003626;28;20314;-68
2021/03/02 08:27:16;;;;;;;18.38;2.92;;;;;;;32.02;27.48;99746.34;5034052;28;20593;-69
2021/03/02 08:29:49;;;;;;;14.40;3.10;;;;;;;32.51;27.20;99749.34;5032989;28;20711;-68
2021/03/02 08:32:17;;;;;;;19.52;3.30;;;;;;;32.86;27.03;99752.16;5033739;28;20302;-68
2021/03/02 08:34:44;;;;;;;10.85;3.85;;;;;;;33.49;26.58;99758.44;5033590;28;20285;-69
2021/03/02 08:37:12;;;;;;;16.67;3.45;;;;;;;32.40;28.53;99759.66;5032624;28;20570;-65
2021/03/02 08:39:40;;;;;;;12.43;3.53;;;;;;;31.81;29.29;99759.81;5031994;28;20228;-68
2021/03/02 08:42:07;;;;;;;15.35;3.70;;;;;;;31.52;29.47;99762.38;5033176;28;20207;-75
2021/03/02 08:44:33;;;;;;;8.10;3.20;;;;;;;32.61;28.92;99758.00;5032622;28;20224;-74
2021/03/02 08:47:01;;;;;;;20.42;3.15;;;;;;;33.48;26.91;99759.44;5032696;28;20198;-74
2021/03/02 08:49:28;;;;;;;7.68;3.25;;;;;;;33.08;27.57;99761.91;5031457;28;20238;-73
2021/03/02 08:51:58;;;;;;;8.68;2.97;;;;;;;32.03;29.09;99764.25;5031597;28;20196;-74
2021/03/02 08:54:25;;;;;;;10.50;2.83;;;;;;;31.42;29.93;99752.88;5031518;28;20246;-75
2021/03/02 08:57:02;;;;;;;8.80;3.10;;;;;;;32.52;28.55;99753.72;5031895;28;20235;-76
2021/03/02 08:59:29;;;;;;;7.38;2.85;;;;;;;33.72;27.39;99749.97;5031614;28;20208;-74
2021/03/02 09:01:56;;;;;;;10.57;3.15;;;;;;;33.14;27.82;99750.28;5031697;28;20306;-74
2021/03/02 09:04:25;;;;;;;5.85;2.75;;;;;;;32.30;29.81;99742.91;5032025;28;20318;-73
2021/03/02 09:06:52;;;;;;;14.10;3.10;;;;;;;31.49;30.49;99751.09;5032419;28;20258;-74
2021/03/02 09:09:20;;;;;;;12.77;2.72;;;;;;;32.75;29.51;99746.25;5032688;28;20204;-74
2021/03/02 09:11:49;;;;;;;6.53;2.60;;;;;;;33.83;27.83;99748.56;5031727;28;20204;-74
2021/03/02 09:14:17;;;;;;;7.43;2.92;;;;;;;32.88;28.65;99745.50;5031431;28;20330;-74
2021/03/02 09:16:46;;;;;;;8.93;2.97;;;;;;;31.94;29.70;99749.16;5031317;28;20519;-75
2021/03/02 09:19:24;;;;;;;6.55;2.40;;;;;;;31.70;29.71;99753.06;5031676;28;20231;-75
2021/03/02 09:21:55;;;;;;;6.85;2.53;;;;;;;33.09;28.41;99747.34;5031796;28;20597;-75
2021/03/02 09:24:26;;;;;;;6.13;2.70;;;;;;;33.91;26.96;99753.81;5031507;28;20234;-75
2021/03/02 09:26:55;;;;;;;9.85;2.78;;;;;;;32.63;29.42;99753.25;5031494;28;20224;-75
2021/03/02 09:29:24;;;;;;;6.95;2.40;;;;;;;31.87;30.29;99746.38;5031371;28;20246;-74
2021/03/02 09:31:51;;;;;;;8.82;2.63;;;;;;;31.94;30.37;99751.88;5031326;28;20192;-73
2021/03/02 09:34:18;;;;;;;9.75;2.47;;;;;;;33.17;27.73;99760.72;5034789;28;20337;-75
2021/03/02 09:36:44;;;;;;;9.02;2.33;;;;;;;33.84;28.14;99760.25;5037328;28;20208;-76
2021/03/02 09:39:22;;;;;;;8.25;2.30;;;;;;;32.60;29.06;99759.00;5037647;28;20285;-75
2021/03/02 09:41:49;;;;;;;6.30;2.30;;;;;;;31.80;29.57;99755.47;5035705;28;20204;-75
2021/03/02 09:44:24;;;;;;;5.68;2.33;;;;;;;32.07;30.33;99764.75;5035698;28;20615;-75
2021/03/02 09:46:52;;;;;;;6.00;2.40;;;;;;;33.33;28.65;99756.88;5034996;28;20259;-73
2021/03/02 09:49:35;;;;;;;5.57;2.10;;;;;;;33.47;27.42;99754.22;5034673;28;20204;-74
2021/03/02 09:52:02;;;;;;;4.90;1.85;;;;;;;32.35;29.36;99754.00;5035025;28;20674;-74
2021/03/02 09:54:29;;;;;;;8.27;2.03;;;;;;;31.82;29.69;99746.13;5035192;28;20227;-73
2021/03/02 09:56:56;;;;;;;5.70;2.20;;;;;;;32.52;28.68;99759.16;5035131;28;20200;-76
2021/03/02 09:59:24;;;;;;;4.88;2.15;;;;;;;33.50;27.19;99760.09;5034554;28;20248;-75
2021/03/02 10:01:51;;;;;;;4.00;2.08;;;;;;;33.29;27.97;99757.47;5034456;28;20252;-67
2021/03/02 10:04:18;;;;;;;5.13;1.88;;;;;;;32.16;29.48;99755.47;5035075;28;20727;-68
2021/03/02 10:06:45;;;;;;;5.95;2.25;;;;;;;31.50;30.64;99758.19;5034656;28;20274;-69
2021/03/02 10:09:22;;;;;;;5.85;2.10;;;;;;;32.67;28.47;99745.56;5034384;28;20246;-69
2021/03/02 10:11:59;;;;;;;6.97;2.10;;;;;;;33.59;28.33;99751.78;5034752;28;20311;-70
2021/03/02 10:14:35;;;;;;;3.47;1.90;;;;;;;32.88;28.56;99753.66;5034427;28;20315;-67
2021/03/02 10:17:02;;;;;;;5.85;2.17;;;;;;;32.00;29.05;99753.81;5034917;28;20302;-68
2021/03/02 10:19:30;;;;;;;5.05;1.75;;;;;;;31.49;29.97;99757.34;5035634;28;20258;-68
2021/03/02 10:21:57;;;;;;;2.75;1.83;;;;;;;30.95;30.93;99750.34;5034762;28;20604;-67
2021/03/02 10:24:26;;;;;;;7.75;2.13;;;;;;;32.05;29.56;99748.66;5034608;28;20227;-68
2021/03/02 10:26:53;;;;;;;4.82;2.20;;;;;;;33.07;28.80;99752.09;5033846;28;20765;-67
2021/03/02 10:29:19;;;;;;;3.08;1.90;;;;;;;33.91;27.20;99751.09;5034245;28;20242;-69
2021/03/02 10:31:46;;;;;;;6.10;2.03;;;;;;;32.84;28.81;99752.34;5033863;28;20203;-69
2021/03/02 10:34:13;;;;;;;4.65;1.88;;;;;;;32.02;29.48;99754.44;5034051;28;20220;-70
2021/03/02 10:36:40;;;;;;;3.28;1.73;;;;;;;32.44;28.69;99747.44;5033624;28;20667;-69
2021/03/02 10:39:09;;;;;;;4.85;2.20;;;;;;;33.72;27.41;99746.44;5033714;28;20224;-70
2021/03/02 10:41:35;;;;;;;23.48;2.63;;;;;;;32.81;28.48;99750.88;5034663;28;20235;-69
2021/03/02 10:44:01;;;;;;;8.07;2.55;;;;;;;31.65;29.61;99748.22;5033885;28;20224;-70
2021/03/02 10:46:29;;;;;;;5.97;2.60;;;;;;;31.24;28.18;99753.25;5033518;28;20299;-69
2021/03/02 10:48:57;;;;;;;17.52;3.72;;;;;;;31.95;28.83;99750.84;5033704;28;20222;-65
2021/03/02 10:51:24;;;;;;;8.40;3.38;;;;;;;30.93;29.26;99751.53;5033984;28;20199;-67
2021/03/02 10:53:50;;;;;;;9.30;3.42;;;;;;;30.52;28.77;99747.31;5033299;28;20258;-69
2021/03/02 10:56:17;;;;;;;15.88;4.30;;;;;;;31.79;27.20;99743.78;5033325;28;20212;-68
2021/03/02 10:58:44;;;;;;;10.25;3.90;;;;;;;30.84;27.81;99748.03;5034108;28;20228;-66
2021/03/02 11:01:11;;;;;;;8.07;3.50;;;;;;;30.38;28.24;99742.75;5033453;28;20659;-69
2021/03/02 11:03:38;;;;;;;7.60;3.72;;;;;;;32.15;26.25;99755.69;5033362;28;20322;-68
2021/03/02 11:06:05;;;;;;;6.57;3.33;;;;;;;30.86;27.10;99740.63;5033295;28;20203;-69
2021/03/02 11:08:31;;;;;;;7.00;3.53;;;;;;;30.47;27.33;99736.25;5033151;28;20246;-68
2021/03/02 11:10:57;;;;;;;9.02;3.97;;;;;;;31.97;25.80;99743.38;5033808;28;20199;-67
2021/03/02 11:13:24;;;;;;;11.75;3.67;;;;;;;31.01;27.33;99737.13;5033078;28;20263;-68
2021/03/02 11:15:50;;;;;;;8.23;3.55;;;;;;;30.64;27.28;99736.94;5033030;28;20402;-68
2021/03/02 11:18:16;;;;;;;8.77;3.80;;;;;;;31.07;27.32;99736.38;5033310;28;20307;-68
2021/03/02 11:20:44;;;;;;;8.70;3.83;;;;;;;31.70;26.07;99731.44;5032928;28;20623;-72
2021/03/02 11:23:12;;;;;;;16.02;2.25;;;;;;;28.96;29.97;99729.16;5033406;28;20306;-69
2021/03/02 11:25:38;;;;;;;4.00;2.38;;;;;;;28.57;30.96;99724.53;5032761;28;20754;-69
2021/03/02 11:28:05;;;;;;;12.30;2.95;;;;;;;30.27;28.84;99720.50;5032936;28;20250;-68
2021/03/02 11:30:32;;;;;;;7.95;2.85;;;;;;;32.04;26.55;99713.69;5033382;28;20231;-68
2021/03/02 11:32:59;;;;;;;6.88;3.00;;;;;;;32.27;26.91;99713.53;5032997;28;20314;-69
2021/03/02 11:35:25;;;;;;;8.07;2.72;;;;;;;30.78;28.49;99711.00;5033565;28;20228;-69
2021/03/02 11:37:51;;;;;;;9.52;2.80;;;;;;;30.38;29.34;99705.78;5033546;28;20188;-69
2021/03/02 11:40:20;;;;;;;4.50;2.35;;;;;;;32.04;26.60;99701.03;5032536;28;20242;-62